Bowerman Airport Hoquiam US
ICAO: KHQM
IATA: HQM
Category: Medium
Scheduled Services: No

Elevation: 18 ft
TransAlt. 18000 ft.

Airport Communications:
ASOS:135.775
SEATTLE CNTR:128.3
SEATTLE RDO:122.2
CTAF/UNICOM:122.7

KHQM Zoom In..

If you have problems with the map follow the link
https://www.worldairports.se/pages/airport.php?
ICAO=KHQM

Runways:

(A) RW 06 length 5000 ft width 150 ft
---- / hdg 60

(B) RW 24 length 5000 ft width 150 ft
ILS 108.70 / hdg 240

Location; KHQM
Day. 18 / Time. 23.53 Zulu
* Altimeter: 30.22
* Temperature: 13° c. 55.4°f.
* Wind from: 270° Speed 04 kn.
Dewpoint: 09° c.
Visibility: 5 Statute Miles.
Clouds: Overcast 1700 ft.
Conditions: Haze.

KHQM 182353Z AUTO 27004KT 5SM HZ OVC017 13/09 A3022 RMK AO2 SLP235 T01330094 10133 20122 56002


Wind From 270°
Speed 04 kn.

 
 
jpsmedia.com for Web Design worldairports.se 2018   terms of use